createdAt,value
2018-09-26T00:00:17.787Z,8.90
2018-09-26T00:02:57.421Z,8.90
2018-09-26T00:05:28.876Z,8.80
2018-09-26T00:08:00.211Z,8.80
2018-09-26T00:10:31.574Z,8.70
2018-09-26T00:13:02.952Z,8.60
2018-09-26T00:15:34.225Z,8.60
2018-09-26T00:18:05.513Z,8.60
2018-09-26T00:20:37.104Z,8.50
2018-09-26T00:23:08.707Z,8.40
2018-09-26T00:25:40.102Z,8.50
2018-09-26T00:28:11.256Z,8.40
2018-09-26T00:30:42.528Z,8.30
2018-09-26T00:33:13.768Z,8.30
2018-09-26T00:35:45.813Z,8.30
2018-09-26T00:38:17.166Z,8.40
2018-09-26T00:40:48.508Z,8.30
2018-09-26T00:43:19.887Z,8.40
2018-09-26T00:45:51.196Z,8.30
2018-09-26T00:48:22.355Z,8.30
2018-09-26T00:50:53.715Z,8.30
2018-09-26T00:53:25.242Z,8.30
2018-09-26T00:55:56.607Z,8.30
2018-09-26T00:58:27.794Z,8.30
2018-09-26T01:00:59.243Z,8.30
2018-09-26T01:03:30.546Z,8.30
2018-09-26T01:06:01.681Z,8.30
2018-09-26T01:08:32.941Z,8.30
2018-09-26T01:11:04.114Z,8.30
2018-09-26T01:13:35.939Z,8.20
2018-09-26T01:16:07.176Z,8.20
2018-09-26T01:18:39.236Z,8.20
2018-09-26T01:21:10.542Z,8.10
2018-09-26T01:23:41.992Z,8.20
2018-09-26T01:26:13.160Z,8.20
2018-09-26T01:28:44.520Z,8.20
2018-09-26T01:31:15.859Z,8.10
2018-09-26T01:33:47.523Z,8.10
2018-09-26T01:36:19.204Z,8.10
2018-09-26T01:38:50.627Z,8.20
2018-09-26T01:41:22.248Z,8.30
2018-09-26T01:43:53.438Z,8.20
2018-09-26T01:46:24.912Z,8.10
2018-09-26T01:48:56.382Z,8.00
2018-09-26T01:51:27.694Z,8.00
2018-09-26T01:53:59.129Z,8.00
2018-09-26T01:56:30.703Z,8.00
2018-09-26T01:59:01.984Z,8.00
2018-09-26T02:01:33.604Z,8.00
2018-09-26T02:04:04.821Z,7.90
2018-09-26T02:06:36.284Z,7.90
2018-09-26T02:09:11.243Z,7.80
2018-09-26T02:11:42.387Z,7.80
2018-09-26T02:14:13.519Z,7.80
2018-09-26T02:16:44.665Z,7.80
2018-09-26T02:19:15.660Z,7.80
2018-09-26T02:21:46.858Z,7.80
2018-09-26T02:24:18.236Z,7.90
2018-09-26T02:26:49.321Z,7.90
2018-09-26T02:29:20.584Z,7.90
2018-09-26T02:31:51.733Z,7.90
2018-09-26T02:34:23.187Z,7.90
2018-09-26T02:36:54.473Z,7.80
2018-09-26T02:39:25.879Z,7.80
2018-09-26T02:41:57.008Z,7.80
2018-09-26T02:44:28.163Z,7.80
2018-09-26T02:46:59.424Z,7.80
2018-09-26T02:49:30.651Z,7.70
2018-09-26T02:52:02.316Z,7.70
2018-09-26T02:54:33.571Z,7.60
2018-09-26T02:57:04.807Z,7.50
2018-09-26T02:59:36.242Z,7.40
2018-09-26T03:02:07.590Z,7.40
2018-09-26T03:04:38.833Z,7.40
2018-09-26T03:07:10.091Z,7.30
2018-09-26T03:09:42.380Z,7.40
2018-09-26T03:12:13.744Z,7.30
2018-09-26T03:14:45.162Z,7.30
2018-09-26T03:17:16.293Z,7.30
2018-09-26T03:19:47.436Z,7.20
2018-09-26T03:22:19.048Z,7.10
2018-09-26T03:24:50.450Z,7.00
2018-09-26T03:27:21.683Z,6.90
2018-09-26T03:29:53.044Z,6.90
2018-09-26T03:32:24.510Z,6.80
2018-09-26T03:34:55.544Z,6.90
2018-09-26T03:37:26.836Z,7.00
2018-09-26T03:39:58.111Z,7.00
2018-09-26T03:42:29.280Z,7.00
2018-09-26T03:45:00.477Z,7.00
2018-09-26T03:47:31.778Z,6.90
2018-09-26T03:50:02.910Z,6.80
2018-09-26T03:52:34.330Z,6.90
2018-09-26T03:55:05.968Z,6.80
2018-09-26T03:57:37.335Z,6.90
2018-09-26T04:00:08.808Z,6.90
2018-09-26T04:02:40.340Z,6.90
2018-09-26T04:05:11.468Z,6.80
2018-09-26T04:07:42.916Z,6.80
2018-09-26T04:10:14.211Z,6.80
2018-09-26T04:12:45.646Z,6.80
2018-09-26T04:15:17.019Z,6.70
2018-09-26T04:17:48.293Z,6.80
2018-09-26T04:20:19.679Z,6.80
2018-09-26T04:22:50.962Z,6.80
2018-09-26T04:25:22.379Z,6.70
2018-09-26T04:27:53.687Z,6.70
2018-09-26T04:30:24.866Z,6.80
2018-09-26T04:32:56.265Z,6.70
2018-09-26T04:35:27.715Z,6.80
2018-09-26T04:37:59.015Z,6.70
2018-09-26T04:40:30.390Z,6.70
2018-09-26T04:43:01.801Z,6.80
2018-09-26T04:45:33.206Z,6.80
2018-09-26T04:48:04.599Z,6.70
2018-09-26T04:50:36.100Z,6.70
2018-09-26T04:53:07.538Z,6.70
2018-09-26T04:55:38.555Z,6.80
2018-09-26T04:58:09.937Z,6.90
2018-09-26T05:00:41.710Z,7.10
2018-09-26T05:03:12.834Z,7.30
2018-09-26T05:05:44.288Z,7.60
2018-09-26T05:08:15.805Z,7.80
2018-09-26T05:10:47.287Z,7.40
2018-09-26T05:13:18.644Z,7.10
2018-09-26T05:15:49.984Z,7.10
2018-09-26T05:18:21.525Z,7.80
2018-09-26T05:20:52.961Z,8.40
2018-09-26T05:23:24.166Z,9.00
2018-09-26T05:25:55.869Z,9.60
2018-09-26T05:28:27.134Z,10.00
2018-09-26T05:30:58.328Z,10.20
2018-09-26T05:33:29.628Z,10.30
2018-09-26T05:36:01.019Z,10.40
2018-09-26T05:38:32.673Z,10.90
2018-09-26T05:41:04.151Z,11.20
2018-09-26T05:43:35.712Z,11.50
2018-09-26T05:46:07.137Z,11.90
2018-09-26T05:48:38.539Z,12.00
2018-09-26T05:51:10.045Z,11.80
2018-09-26T05:53:41.430Z,11.90
2018-09-26T05:56:12.808Z,12.30
2018-09-26T05:58:43.923Z,12.50
2018-09-26T06:01:15.743Z,13.00
2018-09-26T06:03:47.336Z,12.90
2018-09-26T06:06:18.773Z,12.80
2018-09-26T06:08:49.967Z,12.80
2018-09-26T06:11:21.290Z,13.10
2018-09-26T06:13:52.804Z,13.50
2018-09-26T06:16:23.854Z,13.60
2018-09-26T06:18:55.068Z,13.70
2018-09-26T06:21:26.308Z,14.00
2018-09-26T06:23:57.597Z,14.20
2018-09-26T06:26:28.961Z,14.30
2018-09-26T06:29:00.090Z,14.40
2018-09-26T06:31:37.964Z,14.50
2018-09-26T06:34:09.115Z,14.70
2018-09-26T06:36:40.888Z,15.00
2018-09-26T06:39:13.132Z,15.60
2018-09-26T06:41:45.325Z,15.60
2018-09-26T06:44:16.720Z,15.80
2018-09-26T06:46:47.938Z,15.90
2018-09-26T06:49:19.575Z,16.40
2018-09-26T06:51:50.972Z,17.20
2018-09-26T06:54:22.202Z,17.50
2018-09-26T06:56:53.222Z,18.00
2018-09-26T06:59:24.724Z,18.30
2018-09-26T07:01:56.159Z,17.90
2018-09-26T07:04:27.398Z,17.70
2018-09-26T07:06:58.691Z,17.70
2018-09-26T07:09:29.967Z,17.70
2018-09-26T07:12:01.349Z,17.90
2018-09-26T07:14:32.663Z,18.50
2018-09-26T07:17:04.184Z,17.80
2018-09-26T07:19:35.879Z,17.60
2018-09-26T07:22:07.136Z,17.60
2018-09-26T07:24:38.460Z,18.00
2018-09-26T07:27:10.417Z,18.80
2018-09-26T07:29:41.872Z,18.90
2018-09-26T07:32:13.240Z,18.60
2018-09-26T07:34:44.678Z,18.40
2018-09-26T07:37:16.125Z,18.50
2018-09-26T07:39:47.407Z,19.20
2018-09-26T07:42:19.041Z,20.10
2018-09-26T07:44:50.443Z,19.80
2018-09-26T07:47:21.820Z,19.60
2018-09-26T07:49:53.255Z,20.60
2018-09-26T07:52:24.655Z,21.20
2018-09-26T07:54:56.199Z,21.10
2018-09-26T07:57:27.477Z,21.50
2018-09-26T07:59:58.999Z,21.10
2018-09-26T08:02:30.749Z,21.20
2018-09-26T08:05:02.026Z,21.50
2018-09-26T08:07:33.037Z,21.10
2018-09-26T08:10:04.493Z,22.00
2018-09-26T08:12:35.853Z,23.00
2018-09-26T08:15:07.382Z,22.60
2018-09-26T08:17:40.250Z,22.50
2018-09-26T08:20:11.478Z,22.70
2018-09-26T08:22:42.733Z,22.80
2018-09-26T08:25:14.200Z,22.80
2018-09-26T08:27:45.662Z,22.30
2018-09-26T08:30:17.168Z,21.50
2018-09-26T08:32:48.745Z,21.40
2018-09-26T08:35:20.003Z,21.40
2018-09-26T08:37:51.469Z,21.70
2018-09-26T08:40:23.276Z,21.70
2018-09-26T08:42:54.459Z,21.70
2018-09-26T08:45:25.955Z,22.00
2018-09-26T08:47:57.273Z,21.80
2018-09-26T08:50:28.808Z,21.30
2018-09-26T08:53:00.079Z,20.90
2018-09-26T08:55:31.500Z,21.00
2018-09-26T08:58:02.884Z,21.50
2018-09-26T09:00:36.855Z,21.60
2018-09-26T09:03:14.716Z,21.30
2018-09-26T09:05:46.040Z,21.90
2018-09-26T09:08:17.463Z,21.40
2018-09-26T09:10:48.612Z,21.30
2018-09-26T09:13:19.963Z,21.60
2018-09-26T09:15:51.604Z,21.10
2018-09-26T09:18:22.871Z,20.70
2018-09-26T09:20:54.095Z,21.20
2018-09-26T09:23:25.562Z,21.00
2018-09-26T09:25:56.831Z,20.90
2018-09-26T09:28:28.260Z,21.20
2018-09-26T09:30:59.289Z,22.60
2018-09-26T09:33:30.693Z,23.90
2018-09-26T09:36:01.879Z,23.90
2018-09-26T09:38:33.227Z,24.10
2018-09-26T09:41:04.704Z,23.40
2018-09-26T09:43:36.552Z,23.60
2018-09-26T09:46:07.926Z,24.60
2018-09-26T09:48:39.029Z,24.30
2018-09-26T09:51:10.497Z,23.70
2018-09-26T09:53:41.744Z,23.70
2018-09-26T09:56:12.815Z,23.10
2018-09-26T09:58:44.088Z,22.90
2018-09-26T10:01:20.294Z,22.50
2018-09-26T10:03:52.071Z,22.70
2018-09-26T10:06:23.412Z,22.90
2018-09-26T10:08:54.737Z,22.50
2018-09-26T10:11:26.151Z,21.70
2018-09-26T10:13:57.524Z,21.60
2018-09-26T10:16:29.000Z,21.70
2018-09-26T10:19:04.425Z,21.50
2018-09-26T10:21:34.953Z,21.20
2018-09-26T10:24:05.488Z,21.40
2018-09-26T10:26:35.803Z,21.90
2018-09-26T10:29:06.500Z,22.30
2018-09-26T10:31:37.027Z,21.40
2018-09-26T10:34:07.488Z,21.70
2018-09-26T10:36:37.797Z,22.10
2018-09-26T10:39:10.060Z,22.50
2018-09-26T10:41:40.536Z,21.80
2018-09-26T10:44:10.990Z,21.80
2018-09-26T10:46:41.678Z,21.00
2018-09-26T10:49:11.984Z,20.40
2018-09-26T10:51:42.788Z,20.60
2018-09-26T10:54:13.230Z,20.70
2018-09-26T10:56:43.807Z,21.00
2018-09-26T10:59:14.388Z,20.70
2018-09-26T11:01:45.053Z,20.50
2018-09-26T11:04:15.474Z,19.70
2018-09-26T11:06:45.776Z,19.60
2018-09-26T11:09:16.239Z,19.60
2018-09-26T11:11:46.841Z,19.70
2018-09-26T11:14:17.474Z,20.10
2018-09-26T11:16:47.840Z,19.70
2018-09-26T11:19:18.418Z,20.10
2018-09-26T11:21:48.721Z,20.10
2018-09-26T11:24:20.050Z,20.20
2018-09-26T11:26:50.395Z,20.20
2018-09-26T11:29:21.204Z,19.90
2018-09-26T11:31:51.561Z,19.50
2018-09-26T11:34:22.240Z,19.70
2018-09-26T11:36:52.490Z,19.50
2018-09-26T11:39:23.142Z,19.00
2018-09-26T11:41:53.725Z,19.00
2018-09-26T11:44:24.339Z,18.90
2018-09-26T11:46:54.719Z,18.50
2018-09-26T11:49:25.086Z,18.30
2018-09-26T11:51:55.569Z,18.40
2018-09-26T11:54:25.984Z,18.60
2018-09-26T11:56:56.276Z,18.80
2018-09-26T11:59:26.612Z,18.50
2018-09-26T12:01:57.463Z,18.50
2018-09-26T12:04:27.856Z,18.40
2018-09-26T12:06:58.197Z,18.20
2018-09-26T12:09:28.745Z,18.20
2018-09-26T12:11:59.391Z,18.20
2018-09-26T12:14:32.729Z,17.70
2018-09-26T12:17:03.102Z,17.50
2018-09-26T12:19:33.888Z,17.10
2018-09-26T12:22:05.064Z,17.00
2018-09-26T12:24:35.414Z,16.90
2018-09-26T12:27:05.772Z,16.80
2018-09-26T12:29:36.252Z,16.80
2018-09-26T12:32:07.396Z,16.60
2018-09-26T12:34:37.789Z,16.40
2018-09-26T12:37:08.520Z,16.50
2018-09-26T12:39:38.844Z,16.40
2018-09-26T12:42:09.520Z,16.20
2018-09-26T12:44:39.883Z,16.30
2018-09-26T12:47:10.710Z,16.50
2018-09-26T12:49:41.025Z,16.50
2018-09-26T12:52:11.399Z,16.50
2018-09-26T12:54:41.928Z,16.70
2018-09-26T12:57:12.530Z,16.60
2018-09-26T12:59:42.880Z,16.50
2018-09-26T13:02:13.408Z,16.50
2018-09-26T13:04:43.857Z,16.60
2018-09-26T13:07:14.240Z,16.40
2018-09-26T13:09:44.569Z,16.40
2018-09-26T13:12:15.207Z,16.40
2018-09-26T13:14:45.520Z,16.40
2018-09-26T13:17:15.844Z,16.50
2018-09-26T13:19:46.529Z,16.20
2018-09-26T13:22:17.715Z,16.10
2018-09-26T13:24:48.431Z,16.10
2018-09-26T13:27:18.805Z,16.00
2018-09-26T13:29:49.394Z,16.00
2018-09-26T13:32:19.952Z,16.00
2018-09-26T13:34:50.263Z,16.20
2018-09-26T13:37:20.653Z,16.20
2018-09-26T13:39:51.129Z,16.00
2018-09-26T13:42:21.486Z,16.00
2018-09-26T13:44:51.897Z,15.90
2018-09-26T13:47:22.452Z,16.00
2018-09-26T13:49:52.864Z,16.00
2018-09-26T13:52:23.390Z,15.90
2018-09-26T13:54:53.815Z,15.90
2018-09-26T13:57:24.248Z,16.00
2018-09-26T13:59:54.989Z,16.10
2018-09-26T14:02:25.593Z,16.00
2018-09-26T14:04:55.901Z,15.90
2018-09-26T14:07:26.211Z,16.00
2018-09-26T14:09:56.826Z,16.00
2018-09-26T14:12:27.300Z,15.90
2018-09-26T14:14:58.179Z,15.90
2018-09-26T14:17:29.016Z,15.90
2018-09-26T14:19:59.552Z,15.90
2018-09-26T14:22:30.436Z,15.90
2018-09-26T14:25:00.828Z,15.80
2018-09-26T14:27:31.348Z,15.80
2018-09-26T14:30:02.201Z,15.80
2018-09-26T14:32:32.691Z,15.90
2018-09-26T14:35:03.454Z,15.90
2018-09-26T14:37:33.799Z,16.00
2018-09-26T14:40:04.340Z,16.00
2018-09-26T14:42:34.933Z,15.80
2018-09-26T14:45:06.088Z,15.80
2018-09-26T14:47:36.603Z,15.80
2018-09-26T14:50:08.699Z,15.80
2018-09-26T14:52:39.076Z,15.80
2018-09-26T14:55:09.544Z,15.80
2018-09-26T14:57:39.905Z,15.70
2018-09-26T15:00:10.755Z,15.70
2018-09-26T15:02:41.404Z,15.80
2018-09-26T15:05:11.779Z,15.70
2018-09-26T15:07:42.385Z,15.70
2018-09-26T15:10:12.917Z,15.70
2018-09-26T15:12:43.503Z,15.60
2018-09-26T15:15:14.285Z,15.70
2018-09-26T15:17:44.580Z,15.70
2018-09-26T15:20:15.027Z,15.70
2018-09-26T15:22:45.402Z,15.70
2018-09-26T15:25:15.971Z,15.60
2018-09-26T15:27:46.448Z,15.40
2018-09-26T15:30:17.503Z,15.40
2018-09-26T15:32:47.899Z,15.50
2018-09-26T15:35:18.388Z,15.40
2018-09-26T15:37:48.949Z,15.40
2018-09-26T15:40:19.707Z,15.40
2018-09-26T15:42:49.947Z,15.40
2018-09-26T15:45:20.348Z,15.40
2018-09-26T15:47:51.239Z,15.40
2018-09-26T15:50:21.993Z,15.30
2018-09-26T15:52:53.021Z,15.30
2018-09-26T15:55:23.377Z,15.30
2018-09-26T15:57:54.244Z,15.30
2018-09-26T16:00:24.811Z,15.40
2018-09-26T16:02:55.517Z,15.30
2018-09-26T16:05:26.044Z,15.30
2018-09-26T16:07:57.156Z,15.40
2018-09-26T16:10:27.750Z,15.30
2018-09-26T16:12:58.347Z,15.40
2018-09-26T16:15:29.307Z,15.40
2018-09-26T16:17:59.969Z,15.40
2018-09-26T16:20:30.389Z,15.40
2018-09-26T16:23:00.756Z,15.30
2018-09-26T16:25:31.414Z,15.20
2018-09-26T16:28:01.753Z,15.20
2018-09-26T16:30:32.370Z,15.10
2018-09-26T16:33:02.749Z,15.00
2018-09-26T16:35:33.464Z,15.00
2018-09-26T16:38:04.132Z,14.90
2018-09-26T16:40:34.761Z,14.90
2018-09-26T16:43:05.741Z,14.90
2018-09-26T16:45:36.430Z,14.90
2018-09-26T16:48:07.165Z,14.80
2018-09-26T16:50:37.708Z,14.80
2018-09-26T16:53:09.411Z,14.80
2018-09-26T16:55:40.055Z,14.90
2018-09-26T16:58:10.595Z,14.90
2018-09-26T17:00:41.018Z,14.90
2018-09-26T17:03:12.340Z,14.80
2018-09-26T17:05:42.722Z,14.90
2018-09-26T17:08:13.420Z,15.00
2018-09-26T17:10:44.148Z,14.90
2018-09-26T17:13:14.684Z,14.80
2018-09-26T17:15:46.215Z,14.60
2018-09-26T17:18:16.697Z,14.50
2018-09-26T17:20:47.427Z,14.60
2018-09-26T17:23:17.900Z,14.50
2018-09-26T17:25:48.676Z,14.30
2018-09-26T17:28:19.522Z,14.00
2018-09-26T17:30:50.810Z,13.70
2018-09-26T17:33:21.318Z,13.70
2018-09-26T17:35:51.688Z,13.80
2018-09-26T17:38:22.467Z,13.70
2018-09-26T17:40:53.484Z,13.50
2018-09-26T17:43:24.236Z,13.40
2018-09-26T17:45:55.105Z,13.40
2018-09-26T17:48:26.005Z,13.30
2018-09-26T17:50:56.664Z,13.10
2018-09-26T17:53:27.072Z,13.10
2018-09-26T17:55:57.544Z,13.00
2018-09-26T17:58:28.308Z,12.90
2018-09-26T18:00:58.746Z,12.80
2018-09-26T18:03:29.269Z,12.90
2018-09-26T18:06:00.057Z,12.80
2018-09-26T18:08:30.559Z,12.70
2018-09-26T18:11:01.083Z,12.70
2018-09-26T18:13:31.675Z,12.70
2018-09-26T18:16:02.248Z,12.60
2018-09-26T18:18:32.621Z,12.60
2018-09-26T18:21:03.983Z,12.50
2018-09-26T18:23:34.485Z,12.50
2018-09-26T18:26:05.465Z,12.60
2018-09-26T18:28:39.393Z,12.60
2018-09-26T18:31:10.219Z,12.80
2018-09-26T18:33:41.006Z,12.80
2018-09-26T18:36:12.660Z,12.80
2018-09-26T18:38:44.235Z,12.80
2018-09-26T18:41:15.296Z,12.50
2018-09-26T18:43:45.926Z,12.30
2018-09-26T18:46:16.997Z,12.30
2018-09-26T18:48:47.554Z,12.20
2018-09-26T18:51:18.308Z,12.10
2018-09-26T18:53:48.737Z,12.00
2018-09-26T18:56:19.819Z,12.00
2018-09-26T18:58:50.600Z,12.00
2018-09-26T19:01:21.245Z,11.90
2018-09-26T19:03:51.638Z,11.90
2018-09-26T19:06:22.307Z,12.00
2018-09-26T19:08:52.762Z,12.10
2018-09-26T19:11:23.189Z,12.00
2018-09-26T19:13:53.908Z,11.80
2018-09-26T19:16:24.548Z,11.80
2018-09-26T19:18:55.039Z,11.80
2018-09-26T19:21:26.029Z,11.60
2018-09-26T19:23:56.633Z,11.60
2018-09-26T19:26:27.338Z,11.70
2018-09-26T19:28:58.090Z,11.60
2018-09-26T19:31:29.498Z,11.50
2018-09-26T19:34:00.712Z,11.60
2018-09-26T19:36:31.266Z,11.60
2018-09-26T19:39:01.889Z,11.50
2018-09-26T19:41:32.615Z,11.70
2018-09-26T19:44:03.911Z,11.90
2018-09-26T19:46:34.474Z,11.60
2018-09-26T19:49:05.252Z,11.50
2018-09-26T19:51:35.631Z,11.50
2018-09-26T19:54:06.260Z,11.40
2018-09-26T19:56:37.114Z,11.40
2018-09-26T19:59:07.917Z,11.40
2018-09-26T20:01:38.454Z,11.40
2018-09-26T20:04:09.501Z,11.40
2018-09-26T20:06:39.886Z,11.30
2018-09-26T20:09:12.804Z,11.30
2018-09-26T20:11:43.409Z,11.30
2018-09-26T20:14:14.140Z,11.30
2018-09-26T20:16:44.624Z,11.10
2018-09-26T20:19:15.103Z,11.10
2018-09-26T20:21:45.727Z,11.10
2018-09-26T20:24:16.324Z,11.10
2018-09-26T20:26:47.077Z,11.10
2018-09-26T20:29:17.572Z,11.10
2018-09-26T20:31:48.045Z,11.20
2018-09-26T20:34:18.677Z,11.10
2018-09-26T20:36:49.180Z,11.20
2018-09-26T20:39:20.142Z,11.40
2018-09-26T20:41:50.735Z,11.60
2018-09-26T20:44:21.329Z,11.80
2018-09-26T20:46:51.949Z,12.00
2018-09-26T20:49:22.276Z,12.10
2018-09-26T20:51:53.138Z,12.30
2018-09-26T20:54:23.501Z,12.40
2018-09-26T20:56:54.330Z,12.30
2018-09-26T20:59:24.721Z,12.20
2018-09-26T21:01:55.200Z,11.80
2018-09-26T21:04:26.032Z,11.60
2018-09-26T21:06:56.502Z,11.50
2018-09-26T21:09:26.902Z,11.30
2018-09-26T21:11:57.640Z,11.20
2018-09-26T21:14:28.051Z,11.20
2018-09-26T21:16:58.605Z,11.20
2018-09-26T21:19:28.909Z,11.10
2018-09-26T21:21:59.373Z,11.00
2018-09-26T21:24:29.800Z,10.90
2018-09-26T21:27:00.636Z,10.80
2018-09-26T21:29:31.119Z,10.80
2018-09-26T21:32:01.723Z,10.80
2018-09-26T21:34:32.059Z,10.70
2018-09-26T21:37:03.247Z,10.60
2018-09-26T21:39:33.962Z,10.50
2018-09-26T21:42:04.684Z,10.50
2018-09-26T21:44:35.209Z,10.50
2018-09-26T21:47:05.975Z,10.60
2018-09-26T21:49:36.363Z,10.60
2018-09-26T21:52:07.347Z,10.50
2018-09-26T21:54:37.991Z,10.50
2018-09-26T21:57:08.585Z,10.40
2018-09-26T21:59:38.946Z,10.50
2018-09-26T22:02:09.556Z,10.30
2018-09-26T22:04:39.958Z,10.30
2018-09-26T22:07:10.464Z,10.40
2018-09-26T22:09:41.264Z,10.40
2018-09-26T22:12:11.796Z,10.30
2018-09-26T22:14:42.720Z,10.20
2018-09-26T22:17:13.900Z,10.20
2018-09-26T22:19:44.755Z,10.10
2018-09-26T22:22:15.295Z,10.00
2018-09-26T22:24:45.709Z,10.00
2018-09-26T22:27:16.047Z,10.00
2018-09-26T22:29:46.401Z,9.90
2018-09-26T22:32:16.762Z,9.90
2018-09-26T22:34:47.544Z,9.90
2018-09-26T22:37:17.967Z,9.80
2018-09-26T22:39:48.381Z,9.70
2018-09-26T22:42:18.835Z,9.60
2018-09-26T22:44:50.140Z,9.60
2018-09-26T22:47:20.673Z,9.60
2018-09-26T22:49:51.833Z,9.70
2018-09-26T22:52:22.508Z,9.50
2018-09-26T22:54:52.811Z,9.50
2018-09-26T22:57:23.168Z,9.60
2018-09-26T22:59:53.616Z,9.60
2018-09-26T23:02:24.368Z,9.60
2018-09-26T23:04:54.832Z,9.70
2018-09-26T23:07:25.299Z,9.70
2018-09-26T23:09:56.180Z,9.80
2018-09-26T23:12:26.767Z,9.50
2018-09-26T23:14:57.424Z,9.40
2018-09-26T23:17:28.100Z,9.50
2018-09-26T23:19:58.408Z,9.50
2018-09-26T23:22:28.922Z,9.40
2018-09-26T23:24:59.299Z,9.40
2018-09-26T23:27:30.183Z,9.40
2018-09-26T23:30:00.548Z,9.40
2018-09-26T23:32:31.376Z,9.50
2018-09-26T23:35:01.701Z,9.50
2018-09-26T23:37:32.134Z,9.40
2018-09-26T23:40:03.071Z,9.30
2018-09-26T23:42:33.607Z,9.20
2018-09-26T23:45:04.089Z,9.20
2018-09-26T23:47:34.448Z,9.20
2018-09-26T23:50:05.798Z,9.20
2018-09-26T23:52:36.212Z,9.20
2018-09-26T23:55:06.719Z,9.20
2018-09-26T23:57:37.270Z,9.20
